Time;durP1;ratioP1;P1;durP2;ratioP2;P2;SDS_P1;SDS_P2;PMS_P1;PMS_P2;Temp;Humidity;BMP_temperature;BMP_pressure;BME280_temperature;BME280_humidity;BME280_pressure;Samples;Min_cycle;Max_cycle;Signal;HPM_P1;HPM_P2
2023/07/24 00:00:25;;;;;;;8.85;7.30;;;;;;;-148.88;100.00;-17125.47;5012858;28;20022;-71
2023/07/24 00:02:50;;;;;;;8.18;6.80;;;;;;;-148.88;100.00;-17125.47;5014343;28;20441;-72
2023/07/24 00:05:15;;;;;;;9.15;8.18;;;;;;;-148.88;100.00;-17125.47;5014257;28;20025;-73
2023/07/24 00:07:41;;;;;;;8.40;7.47;;;;;;;-148.88;100.00;-17125.47;5014180;28;20032;-72
2023/07/24 00:10:07;;;;;;;8.25;7.38;;;;;;;-148.88;100.00;-17125.47;5014196;28;20033;-72
2023/07/24 00:12:32;;;;;;;9.18;8.07;;;;;;;-148.88;100.00;-17125.47;5014015;28;20018;-72
2023/07/24 00:14:57;;;;;;;9.68;8.65;;;;;;;-148.88;100.00;-17125.47;5014066;28;20034;-72
2023/07/24 00:17:23;;;;;;;9.95;8.95;;;;;;;-148.88;100.00;-17125.47;5014012;28;20112;-72
2023/07/24 00:19:49;;;;;;;10.93;9.55;;;;;;;-148.88;100.00;-17125.47;5013958;28;20021;-72
2023/07/24 00:22:14;;;;;;;10.40;9.38;;;;;;;-148.88;100.00;-17125.47;5012653;28;20029;-72
2023/07/24 00:24:39;;;;;;;10.50;9.43;;;;;;;-148.88;100.00;-17125.47;5014183;28;20129;-72
2023/07/24 00:27:05;;;;;;;9.98;8.98;;;;;;;-148.88;100.00;-17125.47;5014090;28;20028;-71
2023/07/24 00:29:30;;;;;;;13.27;9.88;;;;;;;-148.88;100.00;-17125.47;5013843;28;20033;-71
2023/07/24 00:31:55;;;;;;;10.73;9.63;;;;;;;-148.88;100.00;-17125.47;5013737;28;20451;-72
2023/07/24 00:34:21;;;;;;;10.75;8.88;;;;;;;-148.88;100.00;-17125.47;5013788;28;20037;-72
2023/07/24 00:36:46;;;;;;;11.35;9.43;;;;;;;-148.88;100.00;-17125.47;5013957;28;20033;-72
2023/07/24 00:39:14;;;;;;;10.70;9.60;;;;;;;-148.88;100.00;-17125.47;5013937;28;20121;-72
2023/07/24 00:41:39;;;;;;;12.02;10.15;;;;;;;-148.88;100.00;-17125.47;5013951;28;20053;-72
2023/07/24 00:44:05;;;;;;;11.77;10.57;;;;;;;-148.88;100.00;-17125.47;5013707;28;20065;-72
2023/07/24 00:46:32;;;;;;;13.13;10.35;;;;;;;-148.88;100.00;-17125.47;5013539;28;20041;-72
2023/07/24 00:48:59;;;;;;;10.68;9.50;;;;;;;-148.88;100.00;-17125.47;5012303;28;20030;-72
2023/07/24 00:51:25;;;;;;;11.85;10.60;;;;;;;-148.88;100.00;-17125.47;5013585;28;20399;-73
2023/07/24 00:53:51;;;;;;;11.02;9.82;;;;;;;-148.88;100.00;-17125.47;5013425;28;20468;-72
2023/07/24 00:56:16;;;;;;;10.73;9.20;;;;;;;-148.88;100.00;-17125.47;5013464;28;20029;-71
2023/07/24 00:58:41;;;;;;;11.88;8.88;;;;;;;-148.88;100.00;-17125.47;5013441;28;20396;-72
2023/07/24 01:01:07;;;;;;;9.63;8.65;;;;;;;-148.88;100.00;-17125.47;5013420;28;20436;-72
2023/07/24 01:03:34;;;;;;;11.45;8.07;;;;;;;-148.88;100.00;-17125.47;5013399;28;20021;-72
2023/07/24 01:06:03;;;;;;;9.80;8.70;;;;;;;-148.88;100.00;-17125.47;5013295;28;20403;-72
2023/07/24 01:08:29;;;;;;;10.27;8.57;;;;;;;-148.88;100.00;-17125.47;5011949;28;20026;-72
2023/07/24 01:11:06;;;;;;;9.77;8.68;;;;;;;-148.88;100.00;-17125.47;5013194;28;20396;-72
2023/07/24 01:13:40;;;;;;;13.00;9.60;;;;;;;-148.88;100.00;-17125.47;5013478;28;20125;-72
2023/07/24 01:16:26;;;;;;;;;;;;;;;-148.88;100.00;-17125.47;5013734;28;20036;-72
2023/07/24 01:18:52;;;;;;;10.77;8.77;;;;;;;-148.88;100.00;-17125.47;5013235;28;19909;-72
2023/07/24 01:21:24;;;;;;;10.50;8.75;;;;;;;-148.88;100.00;-17125.47;5011917;28;20026;-72
2023/07/24 01:24:14;;;;;;;10.15;8.52;;;;;;;-148.88;100.00;-17125.47;5013189;28;20404;-72
2023/07/24 01:26:40;;;;;;;14.07;8.60;;;;;;;-148.88;100.00;-17125.47;5013114;28;20057;-72
2023/07/24 01:29:05;;;;;;;10.30;7.68;;;;;;;-148.88;100.00;-17125.47;5013147;28;20022;-72
2023/07/24 01:31:30;;;;;;;10.85;8.27;;;;;;;-148.88;100.00;-17125.47;5013432;28;20030;-72
2023/07/24 01:33:56;;;;;;;10.07;7.93;;;;;;;-148.88;100.00;-17125.47;5013043;28;20461;-72
2023/07/24 01:36:21;;;;;;;8.35;7.35;;;;;;;-148.88;100.00;-17125.47;5012859;28;20520;-72
2023/07/24 01:38:49;;;;;;;8.35;7.32;;;;;;;-148.88;100.00;-17125.47;5013015;28;20048;-72
2023/07/24 01:41:15;;;;;;;8.38;6.97;;;;;;;-148.88;100.00;-17125.47;5013019;28;20026;-72
2023/07/24 01:43:40;;;;;;;9.48;6.53;;;;;;;-148.88;100.00;-17125.47;5012806;28;20496;-72
2023/07/24 01:46:05;;;;;;;9.50;6.30;;;;;;;-148.88;100.00;-17125.47;5013331;28;20045;-72
2023/07/24 01:48:31;;;;;;;8.68;6.25;;;;;;;-148.88;100.00;-17125.47;5012976;28;20026;-72
2023/07/24 01:50:56;;;;;;;9.27;5.85;;;;;;;-148.88;100.00;-17125.47;5012966;28;20053;-71
2023/07/24 01:53:21;;;;;;;8.75;6.15;;;;;;;-148.88;100.00;-17125.47;5012848;28;20101;-72
2023/07/24 01:55:47;;;;;;;7.95;5.95;;;;;;;-148.88;100.00;-17125.47;5012885;28;20026;-72
2023/07/24 01:58:12;;;;;;;7.68;5.47;;;;;;;-148.88;100.00;-17125.47;5012808;28;20022;-72
2023/07/24 02:00:37;;;;;;;9.50;5.20;;;;;;;-148.88;100.00;-17125.47;5012868;28;20025;-72
2023/07/24 02:03:03;;;;;;;8.85;5.85;;;;;;;-148.88;100.00;-17125.47;5012837;28;20429;-72
2023/07/24 02:05:28;;;;;;;6.75;5.45;;;;;;;-148.88;100.00;-17125.47;5012918;28;20480;-72
2023/07/24 02:07:54;;;;;;;8.60;5.30;;;;;;;-148.88;100.00;-17125.47;5011472;28;20572;-71
2023/07/24 02:10:19;;;;;;;6.75;5.25;;;;;;;-148.88;100.00;-17125.47;5012754;28;20022;-72
2023/07/24 02:12:45;;;;;;;8.98;4.80;;;;;;;-148.88;100.00;-17125.47;5012618;28;20481;-72
2023/07/24 02:15:10;;;;;;;7.80;4.63;;;;;;;-148.88;100.00;-17125.47;5008257;23;20070;-84
2023/07/24 02:17:35;;;;;;;8.32;4.72;;;;;;;-148.88;100.00;-17125.47;5008310;28;20034;-83
2023/07/24 02:20:01;;;;;;;7.80;4.13;;;;;;;-148.88;100.00;-17125.47;4993318;28;20058;-84
2023/07/24 02:22:26;;;;;;;8.43;4.32;;;;;;;-148.88;100.00;-17125.47;5032452;28;20145;-83
2023/07/24 02:24:52;;;;;;;4.95;3.95;;;;;;;-148.88;100.00;-17125.47;5000456;28;20397;-83
2023/07/24 02:27:34;;;;;;;8.10;4.53;;;;;;;-148.88;100.00;-17125.47;4999792;28;20026;-84
2023/07/24 02:30:00;;;;;;;10.52;4.97;;;;;;;-148.88;100.00;-17125.47;5027998;23;20030;-84
2023/07/24 02:32:25;;;;;;;8.05;4.30;;;;;;;-148.88;100.00;-17125.47;5024710;28;20026;-83
2023/07/24 02:35:03;;;;;;;8.05;4.10;;;;;;;-148.88;100.00;-17125.47;5011971;28;20033;-83
2023/07/24 02:37:31;;;;;;;7.40;4.13;;;;;;;-148.88;100.00;-17125.47;5011818;28;20027;-84
2023/07/24 02:39:56;;;;;;;7.07;3.60;;;;;;;-148.88;100.00;-17125.47;5009614;28;20058;-83
2023/07/24 02:42:22;;;;;;;10.80;4.03;;;;;;;-148.88;100.00;-17125.47;5002190;28;20022;-82
2023/07/24 02:44:47;;;;;;;7.30;3.80;;;;;;;-148.88;100.00;-17125.47;5001752;28;20350;-83
2023/07/24 02:47:12;;;;;;;7.53;3.60;;;;;;;-148.88;100.00;-17125.47;5003589;28;20076;-83
2023/07/24 02:49:41;;;;;;;7.28;3.78;;;;;;;-148.88;100.00;-17125.47;5006965;28;20026;-82
2023/07/24 02:52:06;;;;;;;5.95;3.22;;;;;;;-148.88;100.00;-17125.47;5006776;28;20029;-83
2023/07/24 02:54:32;;;;;;;5.57;3.55;;;;;;;-148.88;100.00;-17125.47;5007651;28;20026;-83
2023/07/24 02:56:57;;;;;;;5.20;3.30;;;;;;;-148.88;100.00;-17125.47;5006582;28;20069;-83
2023/07/24 02:59:23;;;;;;;6.30;3.33;;;;;;;-148.88;100.00;-17125.47;5009354;28;20026;-84
2023/07/24 03:01:48;;;;;;;6.97;3.60;;;;;;;-148.88;100.00;-17125.47;5007706;28;20026;-83
2023/07/24 03:04:14;;;;;;;6.38;3.80;;;;;;;-148.88;100.00;-17125.47;5007879;28;20058;-83
2023/07/24 03:06:40;;;;;;;5.70;3.97;;;;;;;-148.88;100.00;-17125.47;5007970;28;20491;-83
2023/07/24 03:09:05;;;;;;;6.40;3.53;;;;;;;-148.88;100.00;-17125.47;5008234;28;20053;-83
2023/07/24 03:11:31;;;;;;;6.90;4.13;;;;;;;-148.88;100.00;-17125.47;5007778;28;20034;-83
2023/07/24 03:13:56;;;;;;;6.38;3.70;;;;;;;-148.88;100.00;-17125.47;5005973;28;20026;-84
2023/07/24 03:16:21;;;;;;;7.35;3.83;;;;;;;-148.88;100.00;-17125.47;5006353;28;20478;-83
2023/07/24 03:18:47;;;;;;;6.35;4.18;;;;;;;-148.88;100.00;-17125.47;5004887;28;20397;-83
2023/07/24 03:21:12;;;;;;;7.90;3.47;;;;;;;-148.88;100.00;-17125.47;5000825;28;20029;-82
2023/07/24 03:23:37;;;;;;;7.07;3.67;;;;;;;-148.88;100.00;-17125.47;5003376;28;20125;-83
2023/07/24 03:26:03;;;;;;;5.18;4.03;;;;;;;-148.88;100.00;-17125.47;5006116;28;20037;-83
2023/07/24 03:28:28;;;;;;;10.98;3.92;;;;;;;-148.88;100.00;-17125.47;5005001;28;20049;-83
2023/07/24 03:30:54;;;;;;;7.15;3.92;;;;;;;-148.88;100.00;-17125.47;5005809;28;20023;-84
2023/07/24 03:33:20;;;;;;;7.78;4.05;;;;;;;-148.88;100.00;-17125.47;5006188;28;20446;-83
2023/07/24 03:35:45;;;;;;;8.82;4.30;;;;;;;-148.88;100.00;-17125.47;5007399;28;20034;-83
2023/07/24 03:38:11;;;;;;;6.75;3.92;;;;;;;-148.88;100.00;-17125.47;5006946;28;20030;-84
2023/07/24 03:40:36;;;;;;;8.32;3.95;;;;;;;-148.88;100.00;-17125.47;5006602;28;20022;-84
2023/07/24 03:43:02;;;;;;;8.40;3.72;;;;;;;-148.88;100.00;-17125.47;5007641;28;20077;-84
2023/07/24 03:45:27;;;;;;;7.18;3.60;;;;;;;-148.88;100.00;-17125.47;5008393;28;20030;-83
2023/07/24 03:47:52;;;;;;;7.10;3.92;;;;;;;-148.88;100.00;-17125.47;5008531;28;20034;-83
2023/07/24 03:50:18;;;;;;;8.43;4.10;;;;;;;-148.88;100.00;-17125.47;5007289;28;20030;-83
2023/07/24 03:52:43;;;;;;;9.32;4.15;;;;;;;-148.88;100.00;-17125.47;5007018;28;20026;-84
2023/07/24 03:55:09;;;;;;;6.97;4.05;;;;;;;-148.88;100.00;-17125.47;5003158;28;20041;-84
2023/07/24 03:57:34;;;;;;;8.68;3.88;;;;;;;-148.88;100.00;-17125.47;4998032;28;20019;-83
2023/07/24 03:59:59;;;;;;;6.50;4.00;;;;;;;-148.88;100.00;-17125.47;4997761;28;20176;-83
2023/07/24 04:02:25;;;;;;;6.53;3.95;;;;;;;-148.88;100.00;-17125.47;5000827;28;20439;-83
2023/07/24 04:04:50;;;;;;;5.47;3.80;;;;;;;-148.88;100.00;-17125.47;4998134;28;20019;-82
2023/07/24 04:07:15;;;;;;;6.30;4.05;;;;;;;-148.88;100.00;-17125.47;4996118;28;20026;-82
2023/07/24 04:09:41;;;;;;;7.13;4.15;;;;;;;-148.88;100.00;-17125.47;4997562;28;20457;-82
2023/07/24 04:12:06;;;;;;;6.72;4.20;;;;;;;-148.88;100.00;-17125.47;5000427;28;20026;-83
2023/07/24 04:14:32;;;;;;;7.72;4.20;;;;;;;-148.88;100.00;-17125.47;4998877;28;20022;-83
2023/07/24 04:16:57;;;;;;;4.72;3.65;;;;;;;-148.88;100.00;-17125.47;5000393;28;20449;-83
2023/07/24 04:19:22;;;;;;;7.60;4.13;;;;;;;-148.88;100.00;-17125.47;4999697;28;20062;-84
2023/07/24 04:21:48;;;;;;;10.25;4.25;;;;;;;-148.88;100.00;-17125.47;4999984;28;20064;-84
2023/07/24 04:24:13;;;;;;;8.00;3.75;;;;;;;-148.88;100.00;-17125.47;5001553;28;20034;-82
2023/07/24 04:26:39;;;;;;;7.75;4.13;;;;;;;-148.88;100.00;-17125.47;4999753;28;20034;-83
2023/07/24 04:29:05;;;;;;;10.63;4.60;;;;;;;-148.88;100.00;-17125.47;4998682;28;20508;-82
2023/07/24 04:31:31;;;;;;;7.13;4.30;;;;;;;-148.88;100.00;-17125.47;4999231;28;20088;-83
2023/07/24 04:33:59;;;;;;;6.18;4.63;;;;;;;-148.88;100.00;-17125.47;4998265;28;20477;-82
2023/07/24 04:36:37;;;;;;;11.63;5.00;;;;;;;-148.88;100.00;-17125.47;4997466;28;20101;-83
2023/07/24 04:39:02;;;;;;;7.97;4.60;;;;;;;-148.88;100.00;-17125.47;4999555;28;20056;-84
2023/07/24 04:41:27;;;;;;;6.40;4.72;;;;;;;-148.88;100.00;-17125.47;5002885;28;20022;-84
2023/07/24 04:43:53;;;;;;;9.00;4.53;;;;;;;-148.88;100.00;-17125.47;5004303;28;20042;-84
2023/07/24 04:46:21;;;;;;;7.00;4.63;;;;;;;-148.88;100.00;-17125.47;5003182;28;20026;-85
2023/07/24 04:48:58;;;;;;;10.02;4.68;;;;;;;-148.88;100.00;-17125.47;5000422;28;20030;-83
2023/07/24 04:51:36;;;;;;;7.32;4.13;;;;;;;-148.88;100.00;-17125.47;4999801;28;20022;-85
2023/07/24 04:54:28;;;;;;;9.50;4.57;;;;;;;-148.88;100.00;-17125.47;5002893;28;20489;-85
2023/07/24 04:57:15;;;;;;;8.88;4.60;;;;;;;-148.88;100.00;-17125.47;4994673;28;20030;-84
2023/07/24 04:59:49;;;;;;;7.53;4.45;;;;;;;-148.88;100.00;-17125.47;4997368;28;20030;-85
2023/07/24 05:02:24;;;;;;;6.45;4.35;;;;;;;-148.88;100.00;-17125.47;4998278;28;20026;-85
2023/07/24 05:05:08;;;;;;;7.75;4.32;;;;;;;-148.88;100.00;-17125.47;4996303;28;20026;-84
2023/07/24 05:07:42;;;;;;;7.40;4.40;;;;;;;-148.88;100.00;-17125.47;4997040;28;20038;-85
2023/07/24 05:10:33;;;;;;;7.10;4.40;;;;;;;-148.88;100.00;-17125.47;4995783;28;20026;-85
2023/07/24 05:13:04;;;;;;;8.75;4.60;;;;;;;-148.88;100.00;-17125.47;4995396;28;20034;-85
2023/07/24 05:15:30;;;;;;;8.93;4.88;;;;;;;-148.88;100.00;-17125.47;4998418;28;20490;-84
2023/07/24 05:18:05;;;;;;;11.60;4.93;;;;;;;-148.88;100.00;-17125.47;5000087;28;20026;-84
2023/07/24 05:23:19;;;;;;;9.93;5.28;;;;;;;-148.88;100.00;-17125.47;4994037;28;20066;-84
2023/07/24 05:25:45;;;;;;;7.30;5.40;;;;;;;-148.88;100.00;-17125.47;5004822;28;20037;-84
2023/07/24 05:28:22;;;;;;;9.43;5.28;;;;;;;-148.88;100.00;-17125.47;5004215;28;20030;-85
2023/07/24 05:30:53;;;;;;;7.88;5.03;;;;;;;-148.88;100.00;-17125.47;5005359;28;20042;-84
2023/07/24 05:33:21;;;;;;;8.15;5.45;;;;;;;-148.88;100.00;-17125.47;5004616;28;20421;-85
2023/07/24 05:36:07;;;;;;;7.10;4.90;;;;;;;-148.88;100.00;-17125.47;5005654;28;20034;-85
2023/07/24 05:38:33;;;;;;;9.77;5.93;;;;;;;-148.88;100.00;-17125.47;5005957;28;20461;-85
2023/07/24 05:41:04;;;;;;;9.75;5.45;;;;;;;-148.88;100.00;-17125.47;5005160;28;20022;-85
2023/07/24 05:43:31;;;;;;;9.65;5.63;;;;;;;-148.88;100.00;-17125.47;5004841;28;20076;-85
2023/07/24 05:45:57;;;;;;;8.48;5.25;;;;;;;-148.88;100.00;-17125.47;5006384;28;20389;-84
2023/07/24 05:48:23;;;;;;;7.15;5.55;;;;;;;-148.88;100.00;-17125.47;5008078;28;20058;-84
2023/07/24 05:50:49;;;;;;;7.85;4.65;;;;;;;-148.88;100.00;-17125.47;4996123;28;20022;-84
2023/07/24 05:53:15;;;;;;;9.35;5.53;;;;;;;-148.88;100.00;-17125.47;4998605;28;20106;-83
2023/07/24 05:55:42;;;;;;;8.18;5.00;;;;;;;-148.88;100.00;-17125.47;5002804;28;20026;-83
2023/07/24 05:58:07;;;;;;;6.68;5.10;;;;;;;-148.88;100.00;-17125.47;5005167;28;20069;-83
2023/07/24 06:00:39;;;;;;;7.90;5.60;;;;;;;-148.88;100.00;-17125.47;5009226;28;20444;-84
2023/07/24 06:03:07;;;;;;;9.13;5.00;;;;;;;-148.88;100.00;-17125.47;5008285;28;20374;-83
2023/07/24 06:05:32;;;;;;;6.70;4.07;;;;;;;-148.88;100.00;-17125.47;5007606;28;20057;-84
2023/07/24 06:07:58;;;;;;;6.05;3.90;;;;;;;-148.88;100.00;-17125.47;5009889;28;20026;-84
2023/07/24 06:10:23;;;;;;;7.45;4.28;;;;;;;-148.88;100.00;-17125.47;5009869;28;20022;-83
2023/07/24 06:12:48;;;;;;;7.60;4.50;;;;;;;-148.88;100.00;-17125.47;5009841;28;20046;-84
2023/07/24 06:15:14;;;;;;;7.90;4.45;;;;;;;-148.88;100.00;-17125.47;5009250;28;20085;-85
2023/07/24 06:17:39;;;;;;;8.80;4.57;;;;;;;-148.88;100.00;-17125.47;5010412;28;20033;-85
2023/07/24 06:20:06;;;;;;;9.90;4.65;;;;;;;-148.88;100.00;-17125.47;5008604;28;20089;-85
2023/07/24 06:22:31;;;;;;;7.88;4.57;;;;;;;-148.88;100.00;-17125.47;5007307;28;20037;-84
2023/07/24 06:24:57;;;;;;;5.18;2.80;;;;;;;-148.88;100.00;-17125.47;5006389;28;20026;-85
2023/07/24 06:27:22;;;;;;;3.38;2.03;;;;;;;-148.88;100.00;-17125.47;5005638;28;20026;-85
2023/07/24 06:29:48;;;;;;;3.95;2.30;;;;;;;-148.88;100.00;-17125.47;5013718;28;20094;-85
2023/07/24 06:32:13;;;;;;;3.60;2.25;;;;;;;-148.88;100.00;-17125.47;5013532;28;20069;-84
2023/07/24 06:34:38;;;;;;;4.60;2.20;;;;;;;-148.88;100.00;-17125.47;5007922;28;20025;-86
2023/07/24 06:37:04;;;;;;;4.03;2.17;;;;;;;-148.88;100.00;-17125.47;5001467;28;20481;-86
2023/07/24 06:39:29;;;;;;;3.03;2.25;;;;;;;-148.88;100.00;-17125.47;4998056;28;20022;-85
2023/07/24 06:41:55;;;;;;;4.25;2.10;;;;;;;-148.88;100.00;-17125.47;5008286;28;20100;-85
2023/07/24 06:44:21;;;;;;;4.63;3.25;;;;;;;-148.88;100.00;-17125.47;5010305;28;20022;-85
2023/07/24 06:46:46;;;;;;;5.93;4.07;;;;;;;-148.88;100.00;-17125.47;5009051;28;20069;-86
2023/07/24 06:49:11;;;;;;;6.50;4.85;;;;;;;-148.88;100.00;-17125.47;5010483;28;20018;-86
2023/07/24 06:51:38;;;;;;;8.27;6.78;;;;;;;-148.88;100.00;-17125.47;5011311;28;20030;-84
2023/07/24 06:54:03;;;;;;;9.15;7.07;;;;;;;-148.88;100.00;-17125.47;5009560;28;20094;-85
2023/07/24 06:56:29;;;;;;;8.52;5.93;;;;;;;-148.88;100.00;-17125.47;5011232;28;20054;-86
2023/07/24 06:58:54;;;;;;;7.47;6.03;;;;;;;-148.88;100.00;-17125.47;5006854;28;20026;-83
2023/07/24 07:01:19;;;;;;;6.90;6.20;;;;;;;-148.88;100.00;-17125.47;5001152;28;20041;-85
2023/07/24 07:03:45;;;;;;;7.47;6.00;;;;;;;-148.88;100.00;-17125.47;4998357;28;20069;-84
2023/07/24 07:06:11;;;;;;;8.95;6.03;;;;;;;-148.88;100.00;-17125.47;4998382;28;20026;-85
2023/07/24 07:08:37;;;;;;;11.65;6.10;;;;;;;-148.88;100.00;-17125.47;4998204;28;20049;-83
2023/07/24 07:11:02;;;;;;;9.00;6.32;;;;;;;-148.88;100.00;-17125.47;4996910;28;20489;-85
2023/07/24 07:13:28;;;;;;;7.10;6.05;;;;;;;-148.88;100.00;-17125.47;4996194;28;20217;-84
2023/07/24 07:15:57;;;;;;;8.48;6.85;;;;;;;-148.88;100.00;-17125.47;4996154;28;20425;-85
2023/07/24 07:18:23;;;;;;;9.07;7.63;;;;;;;-148.88;100.00;-17125.47;4996307;28;20512;-85
2023/07/24 07:20:54;;;;;;;10.15;8.52;;;;;;;-148.88;100.00;-17125.47;4995925;28;20030;-85
2023/07/24 07:23:21;;;;;;;10.50;9.43;;;;;;;-148.88;100.00;-17125.47;4995644;28;20065;-84
2023/07/24 07:25:46;;;;;;;14.20;11.27;;;;;;;-148.88;100.00;-17125.47;4996613;28;20026;-85
2023/07/24 07:28:13;;;;;;;14.23;11.73;;;;;;;-148.88;100.00;-17125.47;4996882;28;20022;-83
2023/07/24 07:30:47;;;;;;;12.07;10.93;;;;;;;-148.88;100.00;-17125.47;4996553;28;20026;-85
2023/07/24 07:33:13;;;;;;;12.98;11.18;;;;;;;-148.88;100.00;-17125.47;4996466;28;20033;-82
2023/07/24 07:35:38;;;;;;;12.43;11.05;;;;;;;-148.88;100.00;-17125.47;4997096;28;20026;-83
2023/07/24 07:38:04;;;;;;;12.80;10.80;;;;;;;-148.88;100.00;-17125.47;4998039;28;20053;-83
2023/07/24 07:40:29;;;;;;;13.82;10.85;;;;;;;-148.88;100.00;-17125.47;4999322;28;20028;-82
2023/07/24 07:42:56;;;;;;;13.40;11.98;;;;;;;-148.88;100.00;-17125.47;5000689;28;20030;-82
2023/07/24 07:45:23;;;;;;;13.43;11.88;;;;;;;-148.88;100.00;-17125.47;4997397;28;20122;-84
2023/07/24 07:47:49;;;;;;;13.30;11.88;;;;;;;-148.88;100.00;-17125.47;4998203;28;20054;-84
2023/07/24 07:50:14;;;;;;;12.45;11.25;;;;;;;-148.88;100.00;-17125.47;4999656;28;20026;-83
2023/07/24 07:52:40;;;;;;;12.52;11.25;;;;;;;-148.88;100.00;-17125.47;4997855;28;20023;-83
2023/07/24 07:55:06;;;;;;;11.65;10.15;;;;;;;-148.88;100.00;-17125.47;4998743;28;20029;-82
2023/07/24 07:57:34;;;;;;;11.50;10.35;;;;;;;-148.88;100.00;-17125.47;5000463;28;20026;-85
2023/07/24 07:59:59;;;;;;;11.98;10.77;;;;;;;-148.88;100.00;-17125.47;4999172;28;20481;-83
2023/07/24 08:02:25;;;;;;;13.02;10.95;;;;;;;-148.88;100.00;-17125.47;5000008;28;20060;-82
2023/07/24 08:04:50;;;;;;;11.82;10.63;;;;;;;-148.88;100.00;-17125.47;5000453;28;20202;-82
2023/07/24 08:07:19;;;;;;;12.13;10.90;;;;;;;-148.88;100.00;-17125.47;4999307;28;20054;-84
2023/07/24 08:09:46;;;;;;;11.68;10.57;;;;;;;-148.88;100.00;-17125.47;4998632;28;20033;-83
2023/07/24 08:12:14;;;;;;;11.57;10.38;;;;;;;-148.88;100.00;-17125.47;4998574;28;20026;-82
2023/07/24 08:14:39;;;;;;;11.75;10.43;;;;;;;-148.88;100.00;-17125.47;5001364;28;20084;-82
2023/07/24 08:17:10;;;;;;;12.48;10.95;;;;;;;-148.88;100.00;-17125.47;4999548;28;20046;-85
2023/07/24 08:19:35;;;;;;;13.85;11.77;;;;;;;-148.88;100.00;-17125.47;4999022;28;20501;-85
2023/07/24 08:22:01;;;;;;;13.02;11.73;;;;;;;-148.88;100.00;-17125.47;4997135;28;20085;-83
2023/07/24 08:24:26;;;;;;;12.13;10.93;;;;;;;-148.88;100.00;-17125.47;4997195;28;20041;-83
2023/07/24 08:26:51;;;;;;;12.98;11.73;;;;;;;-148.88;100.00;-17125.47;4996838;28;20018;-83
2023/07/24 08:29:26;;;;;;;12.90;11.55;;;;;;;-148.88;100.00;-17125.47;4998628;28;20085;-86
2023/07/24 08:31:51;;;;;;;15.10;10.88;;;;;;;-148.88;100.00;-17125.47;4997499;28;20049;-85
2023/07/24 08:34:17;;;;;;;10.82;9.73;;;;;;;-148.88;100.00;-17125.47;4998780;28;20401;-84
2023/07/24 08:36:42;;;;;;;11.50;10.02;;;;;;;-148.88;100.00;-17125.47;4998989;28;20028;-83
2023/07/24 08:39:07;;;;;;;13.10;11.05;;;;;;;-148.88;100.00;-17125.47;4997923;28;20508;-84
2023/07/24 08:41:37;;;;;;;12.40;11.15;;;;;;;-148.88;100.00;-17125.47;4999597;28;20101;-82
2023/07/24 08:44:07;;;;;;;12.07;10.88;;;;;;;-148.88;100.00;-17125.47;4996947;28;20032;-84
2023/07/24 08:46:37;;;;;;;12.15;10.88;;;;;;;-148.88;100.00;-17125.47;4999532;28;20036;-83
2023/07/24 08:49:03;;;;;;;12.02;10.82;;;;;;;-148.88;100.00;-17125.47;5017509;28;20052;-83
2023/07/24 08:51:30;;;;;;;11.98;10.65;;;;;;;-148.88;100.00;-17125.47;5017312;28;20030;-84
2023/07/24 08:53:57;;;;;;;12.15;10.30;;;;;;;-148.88;100.00;-17125.47;5019241;28;20025;-84
2023/07/24 08:56:22;;;;;;;13.13;10.73;;;;;;;-148.88;100.00;-17125.47;5018115;28;20022;-85
2023/07/24 08:58:48;;;;;;;13.95;9.85;;;;;;;-148.88;100.00;-17125.47;4996851;28;20046;-79
2023/07/24 09:01:13;;;;;;;12.80;10.15;;;;;;;-148.88;100.00;-17125.47;4996216;28;20087;-82
2023/07/24 09:03:39;;;;;;;12.55;10.52;;;;;;;-148.88;100.00;-17125.47;4995649;28;20420;-81
2023/07/24 09:06:07;;;;;;;11.75;10.25;;;;;;;-148.88;100.00;-17125.47;4995426;28;20032;-83
2023/07/24 09:08:37;;;;;;;12.48;10.13;;;;;;;-148.88;100.00;-17125.47;4997592;28;20034;-82
2023/07/24 09:11:05;;;;;;;11.18;10.07;;;;;;;-148.88;100.00;-17125.47;4997265;28;20023;-83
2023/07/24 09:13:31;;;;;;;11.98;10.10;;;;;;;-148.88;100.00;-17125.47;4997863;28;20089;-83
2023/07/24 09:15:56;;;;;;;11.13;10.00;;;;;;;-148.88;100.00;-17125.47;4996796;28;20432;-84
2023/07/24 09:18:22;;;;;;;11.50;9.93;;;;;;;-148.88;100.00;-17125.47;5013684;28;20085;-83
2023/07/24 09:20:48;;;;;;;10.52;9.50;;;;;;;-148.88;100.00;-17125.47;4996384;28;20027;-84
2023/07/24 09:23:14;;;;;;;11.75;9.98;;;;;;;-148.88;100.00;-17125.47;4997372;28;20046;-84
2023/07/24 09:25:42;;;;;;;11.63;10.30;;;;;;;-148.88;100.00;-17125.47;4996581;28;20030;-83
2023/07/24 09:28:15;;;;;;;11.57;9.70;;;;;;;-148.88;100.00;-17125.47;4999797;28;20108;-83
2023/07/24 09:30:42;;;;;;;12.32;10.40;;;;;;;-148.88;100.00;-17125.47;4997578;28;20064;-83
2023/07/24 09:33:08;;;;;;;10.65;9.55;;;;;;;-148.88;100.00;-17125.47;5002519;28;20097;-82
2023/07/24 09:35:33;;;;;;;12.13;10.07;;;;;;;-148.88;100.00;-17125.47;5000482;28;20079;-84
2023/07/24 09:38:07;;;;;;;12.30;10.68;;;;;;;-148.88;100.00;-17125.47;4999768;28;20101;-83
2023/07/24 09:40:40;;;;;;;13.18;10.63;;;;;;;-148.88;100.00;-17125.47;4999603;28;20057;-82
2023/07/24 09:43:15;;;;;;;;;;;;;;;-148.88;100.00;-17125.47;5000503;28;20082;-86
2023/07/24 09:45:42;;;;;;;9.35;7.50;;;;;;;-148.88;100.00;-17125.47;5000023;28;19910;-82
2023/07/24 09:48:11;;;;;;;8.20;7.40;;;;;;;-148.88;100.00;-17125.47;5001654;28;20026;-82
2023/07/24 09:50:38;;;;;;;6.45;5.75;;;;;;;-148.88;100.00;-17125.47;5000499;28;20022;-83
2023/07/24 09:53:05;;;;;;;6.57;5.88;;;;;;;-148.88;100.00;-17125.47;5000065;28;20030;-84
2023/07/24 09:55:38;;;;;;;7.28;6.40;;;;;;;-148.88;100.00;-17125.47;5002195;28;20053;-83
2023/07/24 09:58:05;;;;;;;7.57;6.28;;;;;;;-148.88;100.00;-17125.47;5002759;28;20080;-82
2023/07/24 10:00:32;;;;;;;7.63;6.53;;;;;;;-148.88;100.00;-17125.47;5003731;28;20126;-82
2023/07/24 10:02:58;;;;;;;7.32;6.63;;;;;;;-148.88;100.00;-17125.47;5003671;28;20027;-82
2023/07/24 10:05:24;;;;;;;9.50;6.93;;;;;;;-148.88;100.00;-17125.47;5004173;28;20034;-83
2023/07/24 10:07:51;;;;;;;9.05;7.18;;;;;;;-148.88;100.00;-17125.47;5005614;28;20397;-84
2023/07/24 10:10:17;;;;;;;8.13;7.32;;;;;;;-148.88;100.00;-17125.47;5009681;28;20037;-83
2023/07/24 10:12:43;;;;;;;8.75;7.85;;;;;;;-148.88;100.00;-17125.47;5014661;28;20030;-81
2023/07/24 10:15:09;;;;;;;5.90;4.75;;;;;;;-148.88;100.00;-17125.47;5013965;28;20077;-81
2023/07/24 10:17:40;;;;;;;4.10;3.63;;;;;;;-148.88;100.00;-17125.47;5006070;28;20396;-84
2023/07/24 10:20:07;;;;;;;3.33;2.65;;;;;;;-148.88;100.00;-17125.47;4985765;28;20026;-83
2023/07/24 10:22:33;;;;;;;3.38;2.42;;;;;;;-148.88;100.00;-17125.47;4987628;28;20428;-84
2023/07/24 10:24:58;;;;;;;3.65;2.47;;;;;;;-148.88;100.00;-17125.47;5000881;28;20026;-83
2023/07/24 10:27:24;;;;;;;3.40;2.28;;;;;;;-148.88;100.00;-17125.47;4984133;28;20022;-84
2023/07/24 10:30:04;;;;;;;3.15;2.38;;;;;;;-148.88;100.00;-17125.47;4983502;28;20049;-84
2023/07/24 10:32:30;;;;;;;3.17;2.03;;;;;;;-148.88;100.00;-17125.47;4981643;28;20038;-83
2023/07/24 10:34:59;;;;;;;2.50;1.95;;;;;;;-148.88;100.00;-17125.47;4998900;28;20033;-84
2023/07/24 10:37:35;;;;;;;2.50;2.00;;;;;;;-148.88;100.00;-17125.47;4999263;28;20041;-84
2023/07/24 10:40:01;;;;;;;3.53;2.50;;;;;;;-148.88;100.00;-17125.47;5002693;28;20090;-84
2023/07/24 10:42:26;;;;;;;4.50;2.47;;;;;;;-148.88;100.00;-17125.47;5001115;28;20057;-83
2023/07/24 10:45:07;;;;;;;2.85;1.90;;;;;;;-148.88;100.00;-17125.47;5000813;28;20035;-84
2023/07/24 10:47:33;;;;;;;3.13;1.80;;;;;;;-148.88;100.00;-17125.47;5001356;28;20049;-84
2023/07/24 10:50:01;;;;;;;3.08;1.85;;;;;;;-148.88;100.00;-17125.47;5002242;28;20030;-83
2023/07/24 10:52:33;;;;;;;2.88;1.90;;;;;;;-148.88;100.00;-17125.47;5001418;28;20037;-86
2023/07/24 10:55:03;;;;;;;2.40;1.70;;;;;;;-148.88;100.00;-17125.47;4999382;28;20034;-85
2023/07/24 10:57:29;;;;;;;2.33;1.80;;;;;;;-148.88;100.00;-17125.47;5000376;28;20033;-82
2023/07/24 10:59:54;;;;;;;2.00;1.50;;;;;;;-148.88;100.00;-17125.47;5001414;28;20427;-84